Time,TemperatureF,DewpointF,PressureIn,WindDirection,WindDirectionDegrees,WindSpeedMPH,WindSpeedGustMPH,Humidity,HourlyPrecipIn,Conditions,Clouds,dailyrainin,SolarRadiationWatts/m^2,SoftwareType,DateUTC
2013-09-13 00:00:00,71.8,70.2,29.66,East,90,0.0,0.0,95,0.00,,,0.00,0,HR-IXPWINDi_r2_v1.2.,2013-09-13 04:00:00,
2013-09-13 00:01:00,71.8,70.2,29.66,East,89,0.0,0.0,95,0.00,,,0.00,0,HR-IXPWINDi_r2_v1.2.,2013-09-13 04:01:00,
2013-09-13 00:06:00,72.0,70.4,29.65,East,88,0.0,0.0,95,0.00,,,0.00,0,HR-IXPWINDi_r2_v1.2.,2013-09-13 04:06:00,
2013-09-13 00:11:00,72.0,70.4,29.65,East,89,0.0,0.0,95,0.00,,,0.00,0,HR-IXPWINDi_r2_v1.2.,2013-09-13 04:11:00,
2013-09-13 00:16:00,72.1,70.5,29.65,East,89,0.0,0.0,95,0.00,,,0.00,0,HR-IXPWINDi_r2_v1.2.,2013-09-13 04:16:00,
2013-09-13 00:21:00,72.0,70.4,29.65,East,90,0.0,0.0,95,0.00,,,0.00,0,HR-IXPWINDi_r2_v1.2.,2013-09-13 04:21:00,
2013-09-13 00:27:00,72.0,70.4,29.65,East,90,0.0,0.0,95,0.00,,,0.00,0,HR-IXPWINDi_r2_v1.2.,2013-09-13 04:27:00,
2013-09-13 00:32:00,72.0,70.4,29.65,East,89,0.0,0.0,95,0.00,,,0.00,0,HR-IXPWINDi_r2_v1.2.,2013-09-13 04:32:00,
2013-09-13 00:37:00,72.0,70.4,29.64,East,90,0.0,0.0,95,0.00,,,0.00,0,HR-IXPWINDi_r2_v1.2.,2013-09-13 04:37:00,
2013-09-13 00:42:00,72.0,70.4,29.64,East,90,0.0,0.0,95,0.00,,,0.00,0,HR-IXPWINDi_r2_v1.2.,2013-09-13 04:42:00,
2013-09-13 00:47:00,72.0,70.4,29.64,East,89,0.0,0.0,95,0.00,,,0.00,0,HR-IXPWINDi_r2_v1.2.,2013-09-13 04:47:00,
2013-09-13 00:53:00,72.3,70.7,29.63,East,90,0.0,0.0,95,0.00,,,0.00,0,HR-IXPWINDi_r2_v1.2.,2013-09-13 04:53:00,
2013-09-13 00:58:00,72.1,70.5,29.63,East,89,0.0,0.0,95,0.00,,,0.00,0,HR-IXPWINDi_r2_v1.2.,2013-09-13 04:58:00,
2013-09-13 01:03:00,72.3,70.7,29.63,East,89,0.0,0.0,95,0.00,,,0.00,0,HR-IXPWINDi_r2_v1.2.,2013-09-13 05:03:00,
2013-09-13 01:08:00,72.1,70.5,29.63,East,89,0.0,0.0,95,0.00,,,0.00,0,HR-IXPWINDi_r2_v1.2.,2013-09-13 05:08:00,
2013-09-13 01:13:00,72.1,70.5,29.63,East,89,0.0,0.0,95,0.00,,,0.00,0,HR-IXPWINDi_r2_v1.2.,2013-09-13 05:13:00,
2013-09-13 01:19:00,72.1,70.5,29.63,East,90,0.0,0.0,95,0.00,,,0.00,0,HR-IXPWINDi_r2_v1.2.,2013-09-13 05:19:00,
2013-09-13 01:24:00,72.0,70.4,29.63,East,90,0.0,0.0,95,0.00,,,0.00,0,HR-IXPWINDi_r2_v1.2.,2013-09-13 05:24:00,
2013-09-13 01:29:00,72.0,70.4,29.63,East,90,0.0,0.0,95,0.00,,,0.00,0,HR-IXPWINDi_r2_v1.2.,2013-09-13 05:29:00,
2013-09-13 01:34:00,71.8,70.2,29.63,East,88,0.0,0.0,95,0.00,,,0.00,0,HR-IXPWINDi_r2_v1.2.,2013-09-13 05:34:00,
2013-09-13 01:39:00,71.8,70.2,29.63,East,89,0.0,0.0,95,0.00,,,0.00,0,HR-IXPWINDi_r2_v1.2.,2013-09-13 05:39:00,
2013-09-13 01:45:00,71.8,70.2,29.63,East,90,0.0,0.0,95,0.00,,,0.00,0,HR-IXPWINDi_r2_v1.2.,2013-09-13 05:45:00,
2013-09-13 01:50:00,71.8,70.2,29.61,East,89,0.0,0.0,95,0.00,,,0.00,0,HR-IXPWINDi_r2_v1.2.,2013-09-13 05:50:00,
2013-09-13 01:55:00,72.0,70.4,29.61,East,90,0.0,0.0,95,0.00,,,0.00,0,HR-IXPWINDi_r2_v1.2.,2013-09-13 05:55:00,
2013-09-13 02:00:00,71.8,70.2,29.61,East,88,0.0,0.0,95,0.00,,,0.00,0,HR-IXPWINDi_r2_v1.2.,2013-09-13 06:00:00,
2013-09-13 02:05:00,71.8,70.2,29.61,East,89,0.0,0.0,95,0.00,,,0.00,0,HR-IXPWINDi_r2_v1.2.,2013-09-13 06:05:00,
2013-09-13 02:11:00,71.8,70.2,29.61,East,89,0.0,0.0,95,0.00,,,0.00,0,HR-IXPWINDi_r2_v1.2.,2013-09-13 06:11:00,
2013-09-13 02:16:00,72.0,70.4,29.61,East,88,0.0,0.0,95,0.00,,,0.00,0,HR-IXPWINDi_r2_v1.2.,2013-09-13 06:16:00,
2013-09-13 02:21:00,72.0,70.4,29.61,East,89,0.0,0.0,95,0.00,,,0.00,0,HR-IXPWINDi_r2_v1.2.,2013-09-13 06:21:00,
2013-09-13 02:26:00,72.0,70.4,29.61,East,88,0.0,0.0,95,0.00,,,0.00,0,HR-IXPWINDi_r2_v1.2.,2013-09-13 06:26:00,
2013-09-13 02:31:00,72.0,70.4,29.61,East,88,0.0,0.0,95,0.00,,,0.00,0,HR-IXPWINDi_r2_v1.2.,2013-09-13 06:31:00,
2013-09-13 02:36:00,72.0,70.4,29.60,East,90,0.0,0.0,95,0.00,,,0.00,0,HR-IXPWINDi_r2_v1.2.,2013-09-13 06:36:00,
2013-09-13 02:41:00,72.1,70.5,29.60,East,89,0.0,0.0,95,0.00,,,0.00,0,HR-IXPWINDi_r2_v1.2.,2013-09-13 06:41:00,
2013-09-13 02:47:00,72.1,70.5,29.60,East,90,0.0,0.0,95,0.00,,,0.00,0,HR-IXPWINDi_r2_v1.2.,2013-09-13 06:47:00,
2013-09-13 02:52:00,72.1,70.5,29.60,East,90,0.0,0.0,95,0.00,,,0.00,0,HR-IXPWINDi_r2_v1.2.,2013-09-13 06:52:00,
2013-09-13 02:57:00,72.1,70.5,29.60,East,90,0.0,0.0,95,0.00,,,0.00,0,HR-IXPWINDi_r2_v1.2.,2013-09-13 06:57:00,
2013-09-13 03:02:00,72.1,70.5,29.60,East,89,0.0,0.0,95,0.00,,,0.00,0,HR-IXPWINDi_r2_v1.2.,2013-09-13 07:02:00,
2013-09-13 03:07:00,72.0,70.4,29.59,East,88,0.0,0.0,95,0.00,,,0.00,0,HR-IXPWINDi_r2_v1.2.,2013-09-13 07:07:00,
2013-09-13 03:12:00,72.0,70.4,29.59,East,88,0.0,0.0,95,0.00,,,0.00,0,HR-IXPWINDi_r2_v1.2.,2013-09-13 07:12:00,
2013-09-13 03:18:00,72.0,70.4,29.59,East,89,0.0,0.0,95,0.00,,,0.00,0,HR-IXPWINDi_r2_v1.2.,2013-09-13 07:18:00,
2013-09-13 03:23:00,71.8,70.2,29.58,East,89,0.0,0.0,95,0.00,,,0.00,0,HR-IXPWINDi_r2_v1.2.,2013-09-13 07:23:00,
2013-09-13 03:28:00,71.8,70.2,29.58,East,89,0.0,0.0,95,0.00,,,0.00,0,HR-IXPWINDi_r2_v1.2.,2013-09-13 07:28:00,
2013-09-13 03:33:00,71.8,70.2,29.58,East,88,0.0,0.0,95,0.00,,,0.00,0,HR-IXPWINDi_r2_v1.2.,2013-09-13 07:33:00,
2013-09-13 03:38:00,71.6,70.0,29.57,East,89,0.0,0.0,95,0.00,,,0.00,0,HR-IXPWINDi_r2_v1.2.,2013-09-13 07:38:00,
2013-09-13 03:43:00,71.6,70.0,29.57,East,89,0.0,0.0,95,0.00,,,0.00,0,HR-IXPWINDi_r2_v1.2.,2013-09-13 07:43:00,
2013-09-13 03:48:00,71.8,70.2,29.57,East,89,0.0,0.0,95,0.00,,,0.00,0,HR-IXPWINDi_r2_v1.2.,2013-09-13 07:48:00,
2013-09-13 03:53:00,71.6,70.0,29.59,East,90,0.0,0.0,95,0.00,,,0.00,0,HR-IXPWINDi_r2_v1.2.,2013-09-13 07:53:00,
2013-09-13 03:59:00,71.6,70.0,29.59,East,89,0.0,0.0,95,0.00,,,0.00,0,HR-IXPWINDi_r2_v1.2.,2013-09-13 07:59:00,
2013-09-13 04:04:00,71.6,70.0,29.59,East,89,0.0,0.0,95,0.00,,,0.00,0,HR-IXPWINDi_r2_v1.2.,2013-09-13 08:04:00,
2013-09-13 04:09:00,71.6,70.0,29.60,East,89,0.0,0.0,95,0.00,,,0.00,0,HR-IXPWINDi_r2_v1.2.,2013-09-13 08:09:00,
2013-09-13 04:14:00,71.6,70.0,29.60,East,88,0.0,0.0,95,0.00,,,0.00,0,HR-IXPWINDi_r2_v1.2.,2013-09-13 08:14:00,
2013-09-13 04:19:00,71.6,70.0,29.60,East,89,0.0,0.0,95,0.00,,,0.00,0,HR-IXPWINDi_r2_v1.2.,2013-09-13 08:19:00,
2013-09-13 04:24:00,71.6,70.0,29.60,East,90,0.0,0.0,95,0.00,,,0.00,0,HR-IXPWINDi_r2_v1.2.,2013-09-13 08:24:00,
2013-09-13 04:29:00,71.6,70.0,29.60,East,88,0.0,0.0,95,0.00,,,0.00,0,HR-IXPWINDi_r2_v1.2.,2013-09-13 08:29:00,
2013-09-13 04:35:00,71.8,70.2,29.60,East,89,0.0,0.0,95,0.00,,,0.00,0,HR-IXPWINDi_r2_v1.2.,2013-09-13 08:35:00,
2013-09-13 04:40:00,71.6,70.0,29.60,East,89,0.0,0.0,95,0.00,,,0.00,0,HR-IXPWINDi_r2_v1.2.,2013-09-13 08:40:00,
2013-09-13 04:45:00,71.6,70.0,29.60,East,89,0.0,0.0,95,0.00,,,0.00,0,HR-IXPWINDi_r2_v1.2.,2013-09-13 08:45:00,
2013-09-13 04:50:00,71.6,70.0,29.59,East,90,0.0,0.0,95,0.00,,,0.00,0,HR-IXPWINDi_r2_v1.2.,2013-09-13 08:50:00,
2013-09-13 04:56:00,71.6,70.0,29.59,East,89,0.0,0.0,95,0.00,,,0.00,0,HR-IXPWINDi_r2_v1.2.,2013-09-13 08:56:00,
2013-09-13 05:01:00,71.6,70.0,29.59,East,89,0.0,0.0,95,0.00,,,0.00,0,HR-IXPWINDi_r2_v1.2.,2013-09-13 09:01:00,
2013-09-13 05:06:00,71.5,69.9,29.59,East,89,0.0,0.0,95,0.00,,,0.00,0,HR-IXPWINDi_r2_v1.2.,2013-09-13 09:06:00,
2013-09-13 05:11:00,71.5,69.9,29.59,East,88,0.0,0.0,95,0.00,,,0.00,0,HR-IXPWINDi_r2_v1.2.,2013-09-13 09:11:00,
2013-09-13 05:16:00,71.6,70.0,29.59,East,90,0.0,0.0,95,0.00,,,0.00,0,HR-IXPWINDi_r2_v1.2.,2013-09-13 09:16:00,
2013-09-13 05:21:00,71.6,70.0,29.59,East,89,0.0,0.0,95,0.00,,,0.00,0,HR-IXPWINDi_r2_v1.2.,2013-09-13 09:21:00,
2013-09-13 05:26:00,71.5,69.9,29.59,East,89,0.0,0.0,95,0.00,,,0.00,0,HR-IXPWINDi_r2_v1.2.,2013-09-13 09:26:00,
2013-09-13 05:32:00,71.5,69.9,29.59,East,89,0.0,0.0,95,0.00,,,0.00,0,HR-IXPWINDi_r2_v1.2.,2013-09-13 09:32:00,
2013-09-13 05:37:00,71.5,69.9,29.59,East,89,0.0,0.0,95,0.00,,,0.00,0,HR-IXPWINDi_r2_v1.2.,2013-09-13 09:37:00,
2013-09-13 05:42:00,71.3,69.7,29.59,East,89,0.0,0.0,95,0.00,,,0.00,0,HR-IXPWINDi_r2_v1.2.,2013-09-13 09:42:00,
2013-09-13 05:47:00,71.1,69.5,29.59,East,90,0.0,0.0,95,0.00,,,0.00,0,HR-IXPWINDi_r2_v1.2.,2013-09-13 09:47:00,
2013-09-13 05:52:00,70.9,69.3,29.59,East,89,0.0,0.0,95,0.00,,,0.00,0,HR-IXPWINDi_r2_v1.2.,2013-09-13 09:52:00,
2013-09-13 05:57:00,70.8,69.2,29.59,East,89,0.0,0.0,95,0.00,,,0.00,0,HR-IXPWINDi_r2_v1.2.,2013-09-13 09:57:00,
2013-09-13 06:02:00,70.8,69.2,29.59,East,89,0.0,0.0,95,0.00,,,0.00,0,HR-IXPWINDi_r2_v1.2.,2013-09-13 10:02:00,
2013-09-13 06:07:00,70.8,69.2,29.60,East,89,0.0,0.0,95,0.00,,,0.00,0,HR-IXPWINDi_r2_v1.2.,2013-09-13 10:07:00,
2013-09-13 06:13:00,70.8,69.2,29.60,East,89,0.0,0.0,95,0.00,,,0.00,0,HR-IXPWINDi_r2_v1.2.,2013-09-13 10:13:00,
2013-09-13 06:18:00,70.6,69.0,29.60,East,88,0.0,0.0,95,0.00,,,0.00,0,HR-IXPWINDi_r2_v1.2.,2013-09-13 10:18:00,
2013-09-13 06:23:00,70.6,69.0,29.61,East,89,0.0,0.0,95,0.00,,,0.00,0,HR-IXPWINDi_r2_v1.2.,2013-09-13 10:23:00,
2013-09-13 06:28:00,70.4,69.1,29.61,East,88,0.0,0.0,96,0.00,,,0.00,0,HR-IXPWINDi_r2_v1.2.,2013-09-13 10:28:00,
2013-09-13 06:33:00,70.4,69.1,29.61,East,89,0.0,0.0,96,0.00,,,0.00,0,HR-IXPWINDi_r2_v1.2.,2013-09-13 10:33:00,
2013-09-13 06:38:00,70.3,68.7,29.61,East,88,0.0,0.0,95,0.00,,,0.00,0,HR-IXPWINDi_r2_v1.2.,2013-09-13 10:38:00,
2013-09-13 06:44:00,70.3,69.0,29.61,East,89,0.0,0.0,96,0.00,,,0.00,0,HR-IXPWINDi_r2_v1.2.,2013-09-13 10:44:00,
2013-09-13 06:49:00,70.3,69.0,29.61,East,90,0.0,0.0,96,0.00,,,0.00,0,HR-IXPWINDi_r2_v1.2.,2013-09-13 10:49:00,
2013-09-13 06:54:00,70.3,69.0,29.61,East,89,0.0,0.0,96,0.00,,,0.00,0,HR-IXPWINDi_r2_v1.2.,2013-09-13 10:54:00,
2013-09-13 06:59:00,70.3,69.0,29.61,East,89,0.0,0.0,96,0.00,,,0.00,0,HR-IXPWINDi_r2_v1.2.,2013-09-13 10:59:00,
2013-09-13 07:04:00,70.6,69.3,29.62,East,89,0.0,0.0,96,0.00,,,0.00,0,HR-IXPWINDi_r2_v1.2.,2013-09-13 11:04:00,
2013-09-13 07:09:00,70.4,69.1,29.62,East,89,0.0,0.0,96,0.00,,,0.00,0,HR-IXPWINDi_r2_v1.2.,2013-09-13 11:09:00,
2013-09-13 07:14:00,70.8,69.5,29.62,East,88,0.0,0.0,96,0.00,,,0.00,0,HR-IXPWINDi_r2_v1.2.,2013-09-13 11:14:00,
2013-09-13 07:19:00,70.8,69.5,29.61,East,89,0.0,0.0,96,0.00,,,0.00,0,HR-IXPWINDi_r2_v1.2.,2013-09-13 11:19:00,
2013-09-13 07:24:00,70.8,69.5,29.61,East,89,0.0,0.0,96,0.00,,,0.00,7,HR-IXPWINDi_r2_v1.2.,2013-09-13 11:24:00,
2013-09-13 07:30:00,71.1,69.8,29.61,East,89,0.0,0.0,96,0.00,,,0.00,35,HR-IXPWINDi_r2_v1.2.,2013-09-13 11:30:00,
2013-09-13 07:35:00,71.3,70.0,29.61,East,89,0.0,0.0,96,0.00,,,0.00,19,HR-IXPWINDi_r2_v1.2.,2013-09-13 11:35:00,
2013-09-13 07:40:00,71.8,70.5,29.61,East,88,0.0,0.0,96,0.00,,,0.00,23,HR-IXPWINDi_r2_v1.2.,2013-09-13 11:40:00,
2013-09-13 07:45:00,71.8,70.5,29.61,East,90,0.0,0.0,96,0.00,,,0.00,26,HR-IXPWINDi_r2_v1.2.,2013-09-13 11:45:00,
2013-09-13 07:50:00,72.0,70.7,29.61,East,88,0.0,0.0,96,0.00,,,0.00,23,HR-IXPWINDi_r2_v1.2.,2013-09-13 11:50:00,
2013-09-13 07:56:00,71.8,70.5,29.61,SE,144,0.0,2.0,96,0.00,,,0.00,19,HR-IXPWINDi_r2_v1.2.,2013-09-13 11:56:00,
2013-09-13 08:01:00,72.0,70.7,29.61,SE,145,0.0,2.0,96,0.00,,,0.00,21,HR-IXPWINDi_r2_v1.2.,2013-09-13 12:01:00,
2013-09-13 08:06:00,72.0,70.7,29.61,SE,144,0.0,1.0,96,0.00,,,0.00,26,HR-IXPWINDi_r2_v1.2.,2013-09-13 12:06:00,
2013-09-13 08:11:00,71.8,70.5,29.61,SE,145,0.0,0.0,96,0.00,,,0.00,33,HR-IXPWINDi_r2_v1.2.,2013-09-13 12:11:00,
2013-09-13 08:16:00,72.0,70.7,29.61,SE,144,0.0,0.0,96,0.00,,,0.00,48,HR-IXPWINDi_r2_v1.2.,2013-09-13 12:16:00,
2013-09-13 08:21:00,72.0,70.7,29.61,SE,145,0.0,0.0,96,0.00,,,0.00,55,HR-IXPWINDi_r2_v1.2.,2013-09-13 12:21:00,
2013-09-13 08:26:00,72.3,71.0,29.61,SSE,147,0.0,0.0,96,0.00,,,0.00,42,HR-IXPWINDi_r2_v1.2.,2013-09-13 12:26:00,
2013-09-13 08:32:00,72.5,71.2,29.61,SE,145,0.0,0.0,96,0.00,,,0.00,49,HR-IXPWINDi_r2_v1.2.,2013-09-13 12:32:00,
2013-09-13 08:37:00,72.5,71.2,29.62,SSE,147,0.0,0.0,96,0.00,,,0.00,32,HR-IXPWINDi_r2_v1.2.,2013-09-13 12:37:00,
2013-09-13 08:42:00,72.3,71.0,29.62,SE,134,0.0,0.0,96,0.00,,,0.00,35,HR-IXPWINDi_r2_v1.2.,2013-09-13 12:42:00,
2013-09-13 08:47:00,71.8,70.5,29.62,SE,133,0.0,0.0,96,0.00,,,0.00,40,HR-IXPWINDi_r2_v1.2.,2013-09-13 12:47:00,
2013-09-13 08:52:00,71.8,70.5,29.62,SE,133,0.0,0.0,96,0.00,,,0.00,111,HR-IXPWINDi_r2_v1.2.,2013-09-13 12:52:00,
2013-09-13 08:58:00,72.3,71.0,29.62,SE,133,0.0,0.0,96,0.00,,,0.00,76,HR-IXPWINDi_r2_v1.2.,2013-09-13 12:58:00,
2013-09-13 09:03:00,72.5,71.2,29.62,SE,133,0.0,0.0,96,0.00,,,0.00,60,HR-IXPWINDi_r2_v1.2.,2013-09-13 13:03:00,
2013-09-13 09:08:00,72.7,71.4,29.61,SE,133,0.0,0.0,96,0.00,,,0.00,84,HR-IXPWINDi_r2_v1.2.,2013-09-13 13:08:00,
2013-09-13 09:13:00,72.7,71.4,29.61,SE,133,0.0,0.0,96,0.00,,,0.00,56,HR-IXPWINDi_r2_v1.2.,2013-09-13 13:13:00,
2013-09-13 09:18:00,72.5,71.2,29.61,SE,130,0.0,3.0,96,0.00,,,0.00,62,HR-IXPWINDi_r2_v1.2.,2013-09-13 13:18:00,
2013-09-13 09:24:00,72.0,70.7,29.61,SE,130,0.0,3.0,96,0.00,,,0.00,74,HR-IXPWINDi_r2_v1.2.,2013-09-13 13:24:00,
2013-09-13 09:29:00,72.1,70.8,29.61,SE,124,1.0,2.0,96,0.00,,,0.00,56,HR-IXPWINDi_r2_v1.2.,2013-09-13 13:29:00,
2013-09-13 09:34:00,71.8,70.5,29.61,ESE,116,0.0,3.0,96,0.00,,,0.00,83,HR-IXPWINDi_r2_v1.2.,2013-09-13 13:34:00,
2013-09-13 09:39:00,72.0,70.4,29.61,ESE,114,0.0,3.0,95,0.00,,,0.00,290,HR-IXPWINDi_r2_v1.2.,2013-09-13 13:39:00,
2013-09-13 09:44:00,72.0,70.4,29.61,ESE,102,0.0,2.0,95,0.00,,,0.00,260,HR-IXPWINDi_r2_v1.2.,2013-09-13 13:44:00,
2013-09-13 09:50:00,72.3,70.7,29.61,ESE,102,0.0,2.0,95,0.00,,,0.00,84,HR-IXPWINDi_r2_v1.2.,2013-09-13 13:50:00,
2013-09-13 09:55:00,72.5,70.9,29.61,ESE,102,0.0,2.0,95,0.00,,,0.00,79,HR-IXPWINDi_r2_v1.2.,2013-09-13 13:55:00,
2013-09-13 10:00:00,72.7,71.1,29.61,ESE,102,0.0,0.0,95,0.00,,,0.00,144,HR-IXPWINDi_r2_v1.2.,2013-09-13 14:00:00,
2013-09-13 10:05:00,72.7,71.1,29.60,NNW,337,0.0,3.0,95,0.00,,,0.00,102,HR-IXPWINDi_r2_v1.2.,2013-09-13 14:05:00,
2013-09-13 10:10:00,72.7,71.1,29.60,NNW,337,0.0,3.0,95,0.00,,,0.00,58,HR-IXPWINDi_r2_v1.2.,2013-09-13 14:10:00,
2013-09-13 10:16:00,72.5,70.9,29.60,NNW,336,1.0,2.0,95,0.00,,,0.00,215,HR-IXPWINDi_r2_v1.2.,2013-09-13 14:16:00,
2013-09-13 10:21:00,72.5,70.9,29.60,NNW,336,0.0,2.0,95,0.00,,,0.00,135,HR-IXPWINDi_r2_v1.2.,2013-09-13 14:21:00,
2013-09-13 10:26:00,72.8,71.2,29.60,NNW,336,0.0,2.0,95,0.00,,,0.00,109,HR-IXPWINDi_r2_v1.2.,2013-09-13 14:26:00,
2013-09-13 10:31:00,72.8,71.2,29.60,NNW,336,1.0,2.0,95,0.00,,,0.00,199,HR-IXPWINDi_r2_v1.2.,2013-09-13 14:31:00,
2013-09-13 10:36:00,73.2,71.3,29.62,NNW,336,0.0,2.0,94,0.00,,,0.00,165,HR-IXPWINDi_r2_v1.2.,2013-09-13 14:36:00,
2013-09-13 10:41:00,73.5,71.6,29.62,NNW,336,0.0,2.0,94,0.00,,,0.00,155,HR-IXPWINDi_r2_v1.2.,2013-09-13 14:41:00,
2013-09-13 10:46:00,73.7,71.8,29.62,South,174,2.0,3.0,94,0.00,,,0.00,70,HR-IXPWINDi_r2_v1.2.,2013-09-13 14:46:00,
2013-09-13 10:51:00,73.3,70.8,29.62,South,171,3.0,3.0,92,0.00,,,0.00,120,HR-IXPWINDi_r2_v1.2.,2013-09-13 14:51:00,
2013-09-13 10:56:00,73.3,70.5,29.62,South,171,0.0,3.0,91,0.00,,,0.00,88,HR-IXPWINDi_r2_v1.2.,2013-09-13 14:56:00,
2013-09-13 11:01:00,73.5,70.3,29.62,South,171,0.0,3.0,90,0.00,,,0.00,113,HR-IXPWINDi_r2_v1.2.,2013-09-13 15:01:00,
2013-09-13 11:06:00,73.3,70.1,29.63,SSW,213,0.0,3.0,90,0.00,,,0.00,118,HR-IXPWINDi_r2_v1.2.,2013-09-13 15:06:00,
2013-09-13 11:11:00,73.2,69.7,29.63,SSW,213,0.0,3.0,89,0.00,,,0.00,107,HR-IXPWINDi_r2_v1.2.,2013-09-13 15:11:00,
2013-09-13 11:16:00,72.8,69.0,29.63,SSW,213,0.0,2.0,88,0.00,,,0.00,113,HR-IXPWINDi_r2_v1.2.,2013-09-13 15:16:00,
2013-09-13 11:22:00,72.5,68.3,29.63,SSW,213,0.0,3.0,87,0.00,,,0.00,113,HR-IXPWINDi_r2_v1.2.,2013-09-13 15:22:00,
2013-09-13 11:27:00,72.0,67.2,29.63,SSW,213,1.0,3.0,85,0.00,,,0.00,111,HR-IXPWINDi_r2_v1.2.,2013-09-13 15:27:00,
2013-09-13 11:32:00,71.3,65.8,29.63,NW,322,0.0,3.0,83,0.00,,,0.00,111,HR-IXPWINDi_r2_v1.2.,2013-09-13 15:32:00,
2013-09-13 11:37:00,70.6,64.8,29.63,East,90,0.0,3.0,82,0.00,,,0.00,107,HR-IXPWINDi_r2_v1.2.,2013-09-13 15:37:00,
2013-09-13 11:42:00,70.3,64.5,29.63,East,90,1.0,3.0,82,0.00,,,0.00,93,HR-IXPWINDi_r2_v1.2.,2013-09-13 15:42:00,
2013-09-13 11:48:00,69.9,63.7,29.63,East,90,0.0,2.0,81,0.00,,,0.00,93,HR-IXPWINDi_r2_v1.2.,2013-09-13 15:48:00,
2013-09-13 11:53:00,69.9,63.7,29.63,East,89,0.0,2.0,81,0.00,,,0.00,91,HR-IXPWINDi_r2_v1.2.,2013-09-13 15:53:00,
2013-09-13 11:58:00,70.1,64.3,29.63,East,89,0.0,2.0,82,0.00,,,0.00,106,HR-IXPWINDi_r2_v1.2.,2013-09-13 15:58:00,
2013-09-13 12:03:00,69.8,63.3,29.63,East,90,0.0,2.0,80,0.00,,,0.00,97,HR-IXPWINDi_r2_v1.2.,2013-09-13 16:03:00,
2013-09-13 12:09:00,69.8,63.3,29.63,East,89,0.0,2.0,80,0.00,,,0.00,120,HR-IXPWINDi_r2_v1.2.,2013-09-13 16:09:00,
2013-09-13 12:14:00,69.6,63.1,29.63,East,89,0.0,0.0,80,0.00,,,0.00,123,HR-IXPWINDi_r2_v1.2.,2013-09-13 16:14:00,
2013-09-13 12:19:00,69.8,63.3,29.63,East,83,1.0,1.0,80,0.00,,,0.00,118,HR-IXPWINDi_r2_v1.2.,2013-09-13 16:19:00,
2013-09-13 12:24:00,69.8,63.3,29.63,East,83,0.0,2.0,80,0.00,,,0.00,128,HR-IXPWINDi_r2_v1.2.,2013-09-13 16:24:00,
2013-09-13 12:29:00,69.9,63.4,29.63,East,83,0.0,2.0,80,0.00,,,0.00,128,HR-IXPWINDi_r2_v1.2.,2013-09-13 16:29:00,
2013-09-13 12:34:00,69.9,63.4,29.63,East,83,0.0,2.0,80,0.00,,,0.00,143,HR-IXPWINDi_r2_v1.2.,2013-09-13 16:34:00,
2013-09-13 12:39:00,70.3,64.1,29.62,East,83,0.0,1.0,81,0.00,,,0.00,157,HR-IXPWINDi_r2_v1.2.,2013-09-13 16:39:00,
2013-09-13 12:44:00,70.3,63.4,29.62,East,83,0.0,1.0,79,0.00,,,0.00,139,HR-IXPWINDi_r2_v1.2.,2013-09-13 16:44:00,
2013-09-13 12:49:00,70.4,63.5,29.61,East,83,0.0,1.0,79,0.00,,,0.00,143,HR-IXPWINDi_r2_v1.2.,2013-09-13 16:49:00,
2013-09-13 12:54:00,70.3,63.1,29.61,SSE,150,0.0,3.0,78,0.00,,,0.00,135,HR-IXPWINDi_r2_v1.2.,2013-09-13 16:54:00,
2013-09-13 12:59:00,70.3,63.1,29.61,SSE,150,0.0,3.0,78,0.00,,,0.00,102,HR-IXPWINDi_r2_v1.2.,2013-09-13 16:59:00,
2013-09-13 13:04:00,70.3,63.1,29.62,SSE,150,0.0,3.0,78,0.00,,,0.00,99,HR-IXPWINDi_r2_v1.2.,2013-09-13 17:04:00,
2013-09-13 13:10:00,70.4,63.2,29.62,SSE,150,0.0,0.0,78,0.00,,,0.00,97,HR-IXPWINDi_r2_v1.2.,2013-09-13 17:10:00,
2013-09-13 13:15:00,70.4,62.8,29.62,SSE,150,0.0,2.0,77,0.00,,,0.00,99,HR-IXPWINDi_r2_v1.2.,2013-09-13 17:15:00,
2013-09-13 13:20:00,70.3,62.3,29.62,SSE,147,0.0,2.0,76,0.00,,,0.00,128,HR-IXPWINDi_r2_v1.2.,2013-09-13 17:20:00,
2013-09-13 13:25:00,70.3,61.9,29.62,South,174,0.0,2.0,75,0.00,,,0.00,158,HR-IXPWINDi_r2_v1.2.,2013-09-13 17:25:00,
2013-09-13 13:30:00,70.4,62.0,29.62,South,171,0.0,3.0,75,0.00,,,0.00,150,HR-IXPWINDi_r2_v1.2.,2013-09-13 17:30:00,
2013-09-13 13:36:00,70.6,62.2,29.61,South,171,0.0,3.0,75,0.00,,,0.00,575,HR-IXPWINDi_r2_v1.2.,2013-09-13 17:36:00,
2013-09-13 13:41:00,71.1,61.9,29.61,SE,141,2.0,3.0,73,0.00,,,0.00,816,HR-IXPWINDi_r2_v1.2.,2013-09-13 17:41:00,
2013-09-13 13:46:00,71.6,61.6,29.61,SE,141,1.0,3.0,71,0.00,,,0.00,503,HR-IXPWINDi_r2_v1.2.,2013-09-13 17:46:00,
2013-09-13 13:51:00,72.3,61.9,29.61,South,182,2.0,6.0,70,0.00,,,0.00,503,HR-IXPWINDi_r2_v1.2.,2013-09-13 17:51:00,
2013-09-13 13:56:00,72.5,60.9,29.61,SE,133,0.0,6.0,67,0.00,,,0.00,695,HR-IXPWINDi_r2_v1.2.,2013-09-13 17:56:00,
2013-09-13 14:01:00,73.2,60.7,29.61,NE,35,3.0,4.0,65,0.00,,,0.00,695,HR-IXPWINDi_r2_v1.2.,2013-09-13 18:01:00,
2013-09-13 14:06:00,73.3,61.2,29.61,NE,56,0.0,4.0,66,0.00,,,0.00,273,HR-IXPWINDi_r2_v1.2.,2013-09-13 18:06:00,
2013-09-13 14:11:00,73.3,61.6,29.61,NE,56,0.0,3.0,67,0.00,,,0.00,760,HR-IXPWINDi_r2_v1.2.,2013-09-13 18:11:00,
2013-09-13 14:16:00,73.3,61.6,29.61,ENE,68,0.0,2.0,67,0.00,,,0.00,737,HR-IXPWINDi_r2_v1.2.,2013-09-13 18:16:00,
2013-09-13 14:22:00,73.7,60.7,29.60,ENE,68,0.0,3.0,64,0.00,,,0.00,755,HR-IXPWINDi_r2_v1.2.,2013-09-13 18:22:00,
2013-09-13 14:27:00,73.5,60.5,29.60,ESE,110,0.0,5.0,64,0.00,,,0.00,725,HR-IXPWINDi_r2_v1.2.,2013-09-13 18:27:00,
2013-09-13 14:32:00,73.7,60.7,29.60,SSE,160,0.0,5.0,64,0.00,,,0.00,725,HR-IXPWINDi_r2_v1.2.,2013-09-13 18:32:00,
2013-09-13 14:37:00,73.3,59.9,29.60,SSE,167,0.0,3.0,63,0.00,,,0.00,725,HR-IXPWINDi_r2_v1.2.,2013-09-13 18:37:00,
2013-09-13 14:42:00,73.3,59.4,29.60,South,178,2.0,2.0,62,0.00,,,0.00,691,HR-IXPWINDi_r2_v1.2.,2013-09-13 18:42:00,
2013-09-13 14:48:00,73.3,60.8,29.60,SSE,161,0.0,3.0,65,0.00,,,0.00,684,HR-IXPWINDi_r2_v1.2.,2013-09-13 18:48:00,
2013-09-13 14:53:00,73.3,59.4,29.60,ENE,72,0.0,3.0,62,0.00,,,0.00,655,HR-IXPWINDi_r2_v1.2.,2013-09-13 18:53:00,
2013-09-13 14:58:00,73.5,60.5,29.60,ENE,72,0.0,2.0,64,0.00,,,0.00,649,HR-IXPWINDi_r2_v1.2.,2013-09-13 18:58:00,
2013-09-13 15:03:00,73.7,58.9,29.60,East,89,0.0,3.0,60,0.00,,,0.00,238,HR-IXPWINDi_r2_v1.2.,2013-09-13 19:03:00,
2013-09-13 15:08:00,74.0,59.6,29.60,East,89,0.0,3.0,61,0.00,,,0.00,95,HR-IXPWINDi_r2_v1.2.,2013-09-13 19:08:00,
2013-09-13 15:14:00,73.7,59.4,29.60,East,89,3.0,3.0,61,0.00,,,0.00,123,HR-IXPWINDi_r2_v1.2.,2013-09-13 19:14:00,
2013-09-13 15:19:00,73.5,58.7,29.60,SE,128,2.0,3.0,60,0.00,,,0.00,111,HR-IXPWINDi_r2_v1.2.,2013-09-13 19:19:00,
2013-09-13 15:24:00,73.2,58.4,29.60,SE,128,0.0,3.0,60,0.00,,,0.00,56,HR-IXPWINDi_r2_v1.2.,2013-09-13 19:24:00,
2013-09-13 15:29:00,73.0,60.0,29.60,SE,128,0.0,2.0,64,0.00,,,0.00,114,HR-IXPWINDi_r2_v1.2.,2013-09-13 19:29:00,
2013-09-13 15:35:00,73.0,59.6,29.60,SE,128,0.0,0.0,63,0.00,,,0.00,137,HR-IXPWINDi_r2_v1.2.,2013-09-13 19:35:00,
2013-09-13 15:40:00,73.0,58.7,29.60,SE,127,0.0,1.0,61,0.00,,,0.00,99,HR-IXPWINDi_r2_v1.2.,2013-09-13 19:40:00,
2013-09-13 15:45:00,73.2,59.3,29.60,SE,127,1.0,3.0,62,0.00,,,0.00,93,HR-IXPWINDi_r2_v1.2.,2013-09-13 19:45:00,
2013-09-13 15:50:00,72.8,59.0,29.61,SE,127,0.0,3.0,62,0.00,,,0.00,95,HR-IXPWINDi_r2_v1.2.,2013-09-13 19:50:00,
2013-09-13 15:55:00,72.3,58.5,29.61,SE,126,2.0,6.0,62,0.00,,,0.00,65,HR-IXPWINDi_r2_v1.2.,2013-09-13 19:55:00,
2013-09-13 16:00:00,71.5,59.5,29.61,East,99,0.0,6.0,66,0.00,,,0.00,76,HR-IXPWINDi_r2_v1.2.,2013-09-13 20:00:00,
2013-09-13 16:06:00,70.6,59.9,29.62,SE,133,2.0,6.0,69,0.00,,,0.00,39,HR-IXPWINDi_r2_v1.2.,2013-09-13 20:06:00,
2013-09-13 16:11:00,69.3,58.6,29.62,NNW,342,0.0,5.0,69,0.00,,,0.00,40,HR-IXPWINDi_r2_v1.2.,2013-09-13 20:11:00,
2013-09-13 16:16:00,68.4,59.0,29.62,NNW,343,0.0,5.0,72,0.00,,,0.00,79,HR-IXPWINDi_r2_v1.2.,2013-09-13 20:16:00,
2013-09-13 16:21:00,67.8,58.8,29.64,NNW,343,0.0,3.0,73,0.00,,,0.00,109,HR-IXPWINDi_r2_v1.2.,2013-09-13 20:21:00,
2013-09-13 16:27:00,67.6,59.3,29.64,NNW,343,0.0,0.0,75,0.00,,,0.00,55,HR-IXPWINDi_r2_v1.2.,2013-09-13 20:27:00,
2013-09-13 16:32:00,67.3,59.0,29.64,NNE,21,0.0,3.0,75,0.00,,,0.00,91,HR-IXPWINDi_r2_v1.2.,2013-09-13 20:32:00,
2013-09-13 16:37:00,67.1,59.2,29.65,West,267,0.0,3.0,76,0.00,,,0.00,100,HR-IXPWINDi_r2_v1.2.,2013-09-13 20:37:00,
2013-09-13 16:42:00,67.1,59.6,29.65,South,182,0.0,2.0,77,0.00,,,0.00,137,HR-IXPWINDi_r2_v1.2.,2013-09-13 20:42:00,
2013-09-13 16:47:00,67.1,59.2,29.65,ESE,112,1.0,4.0,76,0.00,,,0.00,107,HR-IXPWINDi_r2_v1.2.,2013-09-13 20:47:00,
2013-09-13 16:52:00,67.3,59.4,29.65,ESE,113,0.0,4.0,76,0.00,,,0.00,93,HR-IXPWINDi_r2_v1.2.,2013-09-13 20:52:00,
2013-09-13 16:57:00,67.3,59.8,29.65,ESE,112,0.0,3.0,77,0.00,,,0.00,114,HR-IXPWINDi_r2_v1.2.,2013-09-13 20:57:00,
2013-09-13 17:02:00,67.1,58.8,29.65,ESE,109,1.0,2.0,75,0.00,,,0.00,104,HR-IXPWINDi_r2_v1.2.,2013-09-13 21:02:00,
2013-09-13 17:07:00,66.9,58.7,29.66,ESE,106,0.0,7.0,75,0.00,,,0.00,28,HR-IXPWINDi_r2_v1.2.,2013-09-13 21:07:00,
2013-09-13 17:13:00,66.6,58.0,29.66,ESE,109,0.0,7.0,74,0.00,,,0.00,19,HR-IXPWINDi_r2_v1.2.,2013-09-13 21:13:00,
2013-09-13 17:18:00,66.3,58.1,29.66,ESE,109,0.0,2.0,75,0.00,,,0.00,26,HR-IXPWINDi_r2_v1.2.,2013-09-13 21:18:00,
2013-09-13 17:23:00,65.8,57.6,29.66,ESE,109,0.0,0.0,75,0.00,,,0.00,18,HR-IXPWINDi_r2_v1.2.,2013-09-13 21:23:00,
2013-09-13 17:29:00,65.6,57.8,29.66,ESE,112,0.0,3.0,76,0.00,,,0.00,39,HR-IXPWINDi_r2_v1.2.,2013-09-13 21:29:00,
2013-09-13 17:34:00,65.6,58.1,29.66,ESE,112,0.0,3.0,77,0.00,,,0.00,16,HR-IXPWINDi_r2_v1.2.,2013-09-13 21:34:00,
2013-09-13 17:39:00,65.6,58.1,29.66,ESE,109,0.0,2.0,77,0.00,,,0.00,11,HR-IXPWINDi_r2_v1.2.,2013-09-13 21:39:00,
2013-09-13 17:45:00,65.6,57.8,29.66,ESE,109,0.0,2.0,76,0.00,,,0.00,11,HR-IXPWINDi_r2_v1.2.,2013-09-13 21:45:00,
2013-09-13 17:50:00,65.5,57.7,29.67,NW,312,0.0,0.0,76,0.00,,,0.00,7,HR-IXPWINDi_r2_v1.2.,2013-09-13 21:50:00,
2013-09-13 17:55:00,65.5,57.7,29.67,South,184,0.0,2.0,76,0.00,,,0.00,7,HR-IXPWINDi_r2_v1.2.,2013-09-13 21:55:00,
2013-09-13 18:00:00,65.3,57.5,29.67,South,184,0.0,2.0,76,0.00,,,0.00,5,HR-IXPWINDi_r2_v1.2.,2013-09-13 22:00:00,
2013-09-13 18:05:00,65.2,57.4,29.68,South,184,0.0,1.0,76,0.00,,,0.00,5,HR-IXPWINDi_r2_v1.2.,2013-09-13 22:05:00,
2013-09-13 18:11:00,65.0,57.6,29.68,South,184,0.0,1.0,77,0.00,,,0.00,5,HR-IXPWINDi_r2_v1.2.,2013-09-13 22:11:00,
2013-09-13 18:16:00,64.8,57.4,29.68,South,184,0.0,1.0,77,0.00,,,0.00,5,HR-IXPWINDi_r2_v1.2.,2013-09-13 22:16:00,
2013-09-13 18:21:00,64.7,57.6,29.69,South,182,0.0,1.0,78,0.00,,,0.00,7,HR-IXPWINDi_r2_v1.2.,2013-09-13 22:21:00,
2013-09-13 18:26:00,64.5,57.4,29.69,SSE,155,0.0,2.0,78,0.00,,,0.00,14,HR-IXPWINDi_r2_v1.2.,2013-09-13 22:26:00,
2013-09-13 18:32:00,64.5,57.4,29.69,SSE,155,0.0,3.0,78,0.00,,,0.00,12,HR-IXPWINDi_r2_v1.2.,2013-09-13 22:32:00,
2013-09-13 18:37:00,64.7,58.0,29.70,SSE,155,0.0,3.0,79,0.00,,,0.00,5,HR-IXPWINDi_r2_v1.2.,2013-09-13 22:37:00,
2013-09-13 18:42:00,64.7,58.0,29.70,SSE,155,0.0,1.0,79,0.00,,,0.00,5,HR-IXPWINDi_r2_v1.2.,2013-09-13 22:42:00,
2013-09-13 18:47:00,64.7,58.0,29.70,SSE,155,0.0,0.0,79,0.00,,,0.00,0,HR-IXPWINDi_r2_v1.2.,2013-09-13 22:47:00,
2013-09-13 18:52:00,64.7,58.0,29.70,SSE,155,0.0,0.0,79,0.00,,,0.00,0,HR-IXPWINDi_r2_v1.2.,2013-09-13 22:52:00,
2013-09-13 18:58:00,64.8,58.1,29.70,SSE,155,0.0,1.0,79,0.00,,,0.00,0,HR-IXPWINDi_r2_v1.2.,2013-09-13 22:58:00,
2013-09-13 19:03:00,64.7,58.0,29.70,SSE,155,0.0,1.0,79,0.00,,,0.00,0,HR-IXPWINDi_r2_v1.2.,2013-09-13 23:03:00,
2013-09-13 19:08:00,64.7,58.0,29.71,SSE,155,0.0,0.0,79,0.00,,,0.00,0,HR-IXPWINDi_r2_v1.2.,2013-09-13 23:08:00,
2013-09-13 19:13:00,64.5,57.8,29.71,SSE,155,0.0,1.0,79,0.00,,,0.00,0,HR-IXPWINDi_r2_v1.2.,2013-09-13 23:13:00,
2013-09-13 19:18:00,64.5,57.8,29.71,SSE,155,0.0,2.0,79,0.00,,,0.00,0,HR-IXPWINDi_r2_v1.2.,2013-09-13 23:18:00,
2013-09-13 19:24:00,64.3,57.2,29.72,SSE,155,0.0,2.0,78,0.00,,,0.00,0,HR-IXPWINDi_r2_v1.2.,2013-09-13 23:24:00,
2013-09-13 19:29:00,64.3,57.2,29.72,SSE,155,0.0,0.0,78,0.00,,,0.00,0,HR-IXPWINDi_r2_v1.2.,2013-09-13 23:29:00,
2013-09-13 19:34:00,64.3,57.2,29.72,SSE,155,0.0,0.0,78,0.00,,,0.00,0,HR-IXPWINDi_r2_v1.2.,2013-09-13 23:34:00,
2013-09-13 19:39:00,64.2,57.1,29.72,SSE,155,0.0,0.0,78,0.00,,,0.00,0,HR-IXPWINDi_r2_v1.2.,2013-09-13 23:39:00,
2013-09-13 19:44:00,64.0,56.6,29.72,SSE,155,0.0,0.0,77,0.00,,,0.00,0,HR-IXPWINDi_r2_v1.2.,2013-09-13 23:44:00,
2013-09-13 19:50:00,64.0,56.2,29.73,SSE,155,0.0,0.0,76,0.00,,,0.00,0,HR-IXPWINDi_r2_v1.2.,2013-09-13 23:50:00,
2013-09-13 19:55:00,63.9,55.8,29.73,SSE,154,0.0,3.0,75,0.00,,,0.00,0,HR-IXPWINDi_r2_v1.2.,2013-09-13 23:55:00,
2013-09-13 20:00:00,63.7,54.4,29.73,SSE,150,0.0,3.0,72,0.00,,,0.00,0,HR-IXPWINDi_r2_v1.2.,2013-09-14 00:00:00,
2013-09-13 20:05:00,63.5,53.9,29.74,SSE,150,1.0,3.0,71,0.00,,,0.00,0,HR-IXPWINDi_r2_v1.2.,2013-09-14 00:05:00,
2013-09-13 20:10:00,63.5,53.1,29.74,SSE,147,0.0,5.0,69,0.00,,,0.00,0,HR-IXPWINDi_r2_v1.2.,2013-09-14 00:10:00,
2013-09-13 20:15:00,63.4,53.0,29.74,South,186,0.0,5.0,69,0.00,,,0.00,0,HR-IXPWINDi_r2_v1.2.,2013-09-14 00:15:00,
2013-09-13 20:20:00,63.2,52.8,29.75,South,185,0.0,3.0,69,0.00,,,0.00,0,HR-IXPWINDi_r2_v1.2.,2013-09-14 00:20:00,
2013-09-13 20:25:00,62.9,52.5,29.75,South,185,0.0,2.0,69,0.00,,,0.00,0,HR-IXPWINDi_r2_v1.2.,2013-09-14 00:25:00,
2013-09-13 20:31:00,62.6,52.2,29.75,South,185,0.0,0.0,69,0.00,,,0.00,0,HR-IXPWINDi_r2_v1.2.,2013-09-14 00:31:00,
2013-09-13 20:36:00,62.4,52.8,29.76,South,185,0.0,0.0,71,0.00,,,0.00,0,HR-IXPWINDi_r2_v1.2.,2013-09-14 00:36:00,
2013-09-13 20:41:00,62.1,52.5,29.76,South,185,0.0,0.0,71,0.00,,,0.00,0,HR-IXPWINDi_r2_v1.2.,2013-09-14 00:41:00,
2013-09-13 20:46:00,61.6,52.4,29.76,South,185,0.0,0.0,72,0.00,,,0.00,0,HR-IXPWINDi_r2_v1.2.,2013-09-14 00:46:00,
2013-09-13 20:51:00,61.3,52.1,29.76,South,186,0.0,0.0,72,0.00,,,0.00,0,HR-IXPWINDi_r2_v1.2.,2013-09-14 00:51:00,
2013-09-13 20:56:00,61.0,52.2,29.76,South,185,0.0,0.0,73,0.00,,,0.00,0,HR-IXPWINDi_r2_v1.2.,2013-09-14 00:56:00,
2013-09-13 21:02:00,60.7,51.9,29.76,South,185,0.0,2.0,73,0.00,,,0.00,0,HR-IXPWINDi_r2_v1.2.,2013-09-14 01:02:00,
2013-09-13 21:07:00,60.4,52.0,29.76,South,186,0.0,2.0,74,0.00,,,0.00,0,HR-IXPWINDi_r2_v1.2.,2013-09-14 01:07:00,
2013-09-13 21:12:00,60.1,52.1,29.76,South,185,0.0,0.0,75,0.00,,,0.00,0,HR-IXPWINDi_r2_v1.2.,2013-09-14 01:12:00,
2013-09-13 21:17:00,59.9,52.3,29.76,South,185,0.0,0.0,76,0.00,,,0.00,0,HR-IXPWINDi_r2_v1.2.,2013-09-14 01:17:00,
2013-09-13 21:22:00,59.8,52.2,29.76,South,186,0.0,0.0,76,0.00,,,0.00,0,HR-IXPWINDi_r2_v1.2.,2013-09-14 01:22:00,
2013-09-13 21:28:00,59.5,52.2,29.76,South,186,0.0,1.0,77,0.00,,,0.00,0,HR-IXPWINDi_r2_v1.2.,2013-09-14 01:28:00,
2013-09-13 21:33:00,59.3,52.0,29.76,South,186,0.0,1.0,77,0.00,,,0.00,0,HR-IXPWINDi_r2_v1.2.,2013-09-14 01:33:00,
2013-09-13 21:38:00,59.3,52.0,29.77,South,185,0.0,0.0,77,0.00,,,0.00,0,HR-IXPWINDi_r2_v1.2.,2013-09-14 01:38:00,
2013-09-13 21:43:00,59.2,52.3,29.77,South,185,0.0,0.0,78,0.00,,,0.00,0,HR-IXPWINDi_r2_v1.2.,2013-09-14 01:43:00,
2013-09-13 21:48:00,59.0,51.7,29.77,South,186,0.0,0.0,77,0.00,,,0.00,0,HR-IXPWINDi_r2_v1.2.,2013-09-14 01:48:00,
2013-09-13 21:54:00,58.9,52.0,29.78,South,186,0.0,0.0,78,0.00,,,0.00,0,HR-IXPWINDi_r2_v1.2.,2013-09-14 01:54:00,
2013-09-13 21:59:00,58.6,52.0,29.78,South,185,0.0,0.0,79,0.00,,,0.00,0,HR-IXPWINDi_r2_v1.2.,2013-09-14 01:59:00,
2013-09-13 22:04:00,58.4,51.9,29.79,South,185,0.0,0.0,79,0.00,,,0.00,0,HR-IXPWINDi_r2_v1.2.,2013-09-14 02:04:00,
2013-09-13 22:09:00,58.3,52.1,29.79,South,185,0.0,0.0,80,0.00,,,0.00,0,HR-IXPWINDi_r2_v1.2.,2013-09-14 02:09:00,
2013-09-13 22:14:00,58.0,51.8,29.79,South,186,0.0,0.0,80,0.00,,,0.00,0,HR-IXPWINDi_r2_v1.2.,2013-09-14 02:14:00,
2013-09-13 22:19:00,57.8,51.9,29.79,South,185,0.0,0.0,81,0.00,,,0.00,0,HR-IXPWINDi_r2_v1.2.,2013-09-14 02:19:00,
2013-09-13 22:25:00,57.6,52.1,29.79,South,185,0.0,0.0,82,0.00,,,0.00,0,HR-IXPWINDi_r2_v1.2.,2013-09-14 02:25:00,
2013-09-13 22:30:00,57.5,52.0,29.79,South,186,0.0,0.0,82,0.00,,,0.00,0,HR-IXPWINDi_r2_v1.2.,2013-09-14 02:30:00,
2013-09-13 22:35:00,57.2,52.0,29.79,South,186,0.0,0.0,83,0.00,,,0.00,0,HR-IXPWINDi_r2_v1.2.,2013-09-14 02:35:00,
2013-09-13 22:40:00,57.0,51.8,29.79,South,185,0.0,0.0,83,0.00,,,0.00,0,HR-IXPWINDi_r2_v1.2.,2013-09-14 02:40:00,
2013-09-13 22:45:00,56.9,52.1,29.79,South,186,0.0,0.0,84,0.00,,,0.00,0,HR-IXPWINDi_r2_v1.2.,2013-09-14 02:45:00,
2013-09-13 22:50:00,56.6,52.1,29.79,South,186,0.0,0.0,85,0.00,,,0.00,0,HR-IXPWINDi_r2_v1.2.,2013-09-14 02:50:00,
2013-09-13 22:55:00,56.5,52.3,29.79,South,186,0.0,0.0,86,0.00,,,0.00,0,HR-IXPWINDi_r2_v1.2.,2013-09-14 02:55:00,
2013-09-13 23:00:00,56.3,52.1,29.79,South,186,0.0,0.0,86,0.00,,,0.00,0,HR-IXPWINDi_r2_v1.2.,2013-09-14 03:00:00,
2013-09-13 23:06:00,56.3,52.1,29.80,South,186,0.0,0.0,86,0.00,,,0.00,0,HR-IXPWINDi_r2_v1.2.,2013-09-14 03:06:00,
2013-09-13 23:11:00,56.5,52.6,29.80,South,186,0.0,0.0,87,0.00,,,0.00,0,HR-IXPWINDi_r2_v1.2.,2013-09-14 03:11:00,
2013-09-13 23:16:00,56.3,52.1,29.80,South,186,0.0,0.0,86,0.00,,,0.00,0,HR-IXPWINDi_r2_v1.2.,2013-09-14 03:16:00,
2013-09-13 23:21:00,56.3,52.4,29.79,South,186,0.0,0.0,87,0.00,,,0.00,0,HR-IXPWINDi_r2_v1.2.,2013-09-14 03:21:00,
2013-09-13 23:27:00,56.2,52.3,29.79,South,186,0.0,0.0,87,0.00,,,0.00,0,HR-IXPWINDi_r2_v1.2.,2013-09-14 03:27:00,
2013-09-13 23:32:00,56.2,52.3,29.79,South,186,0.0,0.0,87,0.00,,,0.00,0,HR-IXPWINDi_r2_v1.2.,2013-09-14 03:32:00,
2013-09-13 23:37:00,56.0,52.4,29.80,South,185,0.0,0.0,88,0.00,,,0.00,0,HR-IXPWINDi_r2_v1.2.,2013-09-14 03:37:00,
2013-09-13 23:42:00,56.0,52.4,29.80,South,186,0.0,0.0,88,0.00,,,0.00,0,HR-IXPWINDi_r2_v1.2.,2013-09-14 03:42:00,
2013-09-13 23:48:00,56.0,52.7,29.80,South,186,0.0,0.0,89,0.00,,,0.00,0,HR-IXPWINDi_r2_v1.2.,2013-09-14 03:48:00,
2013-09-13 23:53:00,56.0,52.7,29.80,South,186,0.0,0.0,89,0.00,,,0.00,0,HR-IXPWINDi_r2_v1.2.,2013-09-14 03:53:00,
2013-09-13 23:58:00,55.9,52.6,29.80,South,185,0.0,0.0,89,0.00,,,0.00,0,HR-IXPWINDi_r2_v1.2.,2013-09-14 03:58:00,